Airport ID:KRVF
Update Time (UTC):19/08/2022 12:11
Wind Speed (Knots):15
Wind Direction (Magnetic):30
Temperature (°C):19
Dew Point (°C):7
Humidity (%):45
Altimeter (inHg):30.12
Density Altitude (Feet):6300
Visibility:10+
Clouds (Hundreds of feet):CLR
Present Weather:
METAR:METAR KRVF 191210Z AUTO 04014KT 10SM CLR 19/07 A3012 RMK AO2

The data displayed is for advisory purposes only and is not to be used for flight planning or operations.